Time;durP1;ratioP1;P1;durP2;ratioP2;P2;SDS_P1;SDS_P2;PMS_P1;PMS_P2;Temp;Humidity;BMP_temperature;BMP_pressure;BME280_temperature;BME280_humidity;BME280_pressure;Samples;Min_cycle;Max_cycle;Signal;HPM_P1;HPM_P2
2022/03/17 00:00:34;;;;;;;5.90;1.63;;;10.00;99.90;;;;;;5066376;28;20033;-78
2022/03/17 00:03:00;;;;;;;4.13;1.73;;;10.00;99.90;;;;;;5044382;28;20132;-78
2022/03/17 00:05:25;;;;;;;4.35;1.58;;;10.00;99.90;;;;;;5047663;28;20041;-78
2022/03/17 00:07:51;;;;;;;3.50;1.30;;;9.90;99.90;;;;;;5042742;28;20086;-78
2022/03/17 00:10:17;;;;;;;4.32;2.22;;;9.90;99.90;;;;;;5055241;28;20101;-78
2022/03/17 00:12:47;;;;;;;3.33;1.52;;;9.90;99.90;;;;;;5058969;28;20041;-78
2022/03/17 00:15:14;;;;;;;4.72;1.90;;;9.90;99.90;;;;;;5038051;28;20514;-78
2022/03/17 00:17:44;;;;;;;2.90;1.38;;;9.90;99.90;;;;;;5042779;28;20033;-78
2022/03/17 00:20:11;;;;;;;3.63;1.10;;;9.90;99.90;;;;;;5061128;28;20533;-78
2022/03/17 00:22:37;;;;;;;3.75;1.50;;;9.90;99.90;;;;;;5057433;28;20045;-78
2022/03/17 00:25:05;;;;;;;4.85;2.00;;;9.90;99.90;;;;;;5048086;28;20036;-78
2022/03/17 00:27:31;;;;;;;2.55;1.15;;;9.90;99.90;;;;;;5042901;28;20034;-78
2022/03/17 00:29:57;;;;;;;4.35;1.95;;;9.90;99.90;;;;;;5047576;28;20037;-78
2022/03/17 00:32:23;;;;;;;4.82;1.45;;;9.90;99.90;;;;;;5025812;28;20048;-78
2022/03/17 00:37:33;;;;;;;2.60;1.67;;;9.90;99.90;;;;;;5058108;28;20301;-78
2022/03/17 00:39:59;;;;;;;5.40;1.45;;;9.90;99.90;;;;;;5047495;28;20025;-78
2022/03/17 00:42:26;;;;;;;5.88;2.70;;;9.90;99.90;;;;;;5052172;28;20486;-78
2022/03/17 00:44:53;;;;;;;4.22;1.67;;;9.90;99.90;;;;;;5057720;28;20051;-78
2022/03/17 00:47:19;;;;;;;6.28;2.00;;;9.90;99.90;;;;;;5043525;28;20130;-78
2022/03/17 00:49:44;;;;;;;5.97;2.47;;;9.80;99.90;;;;;;5041245;28;20497;-78
2022/03/17 00:52:11;;;;;;;3.88;1.83;;;9.90;99.90;;;;;;5043276;28;20045;-78
2022/03/17 00:54:39;;;;;;;3.28;1.13;;;9.90;99.90;;;;;;5047108;28;20068;-78
2022/03/17 00:57:05;;;;;;;3.05;1.50;;;9.80;99.90;;;;;;5043507;28;20036;-78
2022/03/17 00:59:31;;;;;;;3.05;1.45;;;9.80;99.90;;;;;;5044390;28;20037;-78
2022/03/17 01:01:57;;;;;;;5.70;2.25;;;9.80;99.90;;;;;;5042563;28;20037;-78
2022/03/17 01:04:22;;;;;;;3.83;1.83;;;9.80;99.90;;;;;;5040009;28;20029;-78
2022/03/17 01:06:48;;;;;;;7.35;2.92;;;9.80;99.90;;;;;;5037824;28;20111;-78
2022/03/17 01:09:14;;;;;;;6.55;2.40;;;9.90;99.90;;;;;;5044688;28;20087;-78
2022/03/17 01:11:39;;;;;;;3.33;1.20;;;9.80;99.90;;;;;;5041529;28;20037;-78
2022/03/17 01:14:05;;;;;;;3.90;1.23;;;9.80;99.90;;;;;;5041857;28;20041;-78
2022/03/17 01:16:30;;;;;;;2.53;1.23;;;9.90;99.90;;;;;;5041249;28;20083;-78
2022/03/17 01:18:56;;;;;;;4.22;1.90;;;9.80;99.90;;;;;;5044308;28;20102;-78
2022/03/17 01:21:21;;;;;;;6.18;2.10;;;9.80;99.90;;;;;;5055651;28;20211;-78
2022/03/17 01:23:47;;;;;;;5.50;1.55;;;9.80;99.90;;;;;;5027669;28;20071;-78
2022/03/17 01:26:13;;;;;;;6.03;2.40;;;9.80;99.90;;;;;;5060120;28;20409;-78
2022/03/17 01:28:40;;;;;;;3.95;1.60;;;9.80;99.90;;;;;;5041974;28;20047;-78
2022/03/17 01:31:05;;;;;;;5.32;2.15;;;9.90;99.90;;;;;;5040076;28;20060;-78
2022/03/17 01:33:31;;;;;;;3.40;1.40;;;9.80;99.90;;;;;;5042762;28;20041;-78
2022/03/17 01:35:57;;;;;;;4.57;1.30;;;9.80;99.90;;;;;;5040726;28;20044;-78
2022/03/17 01:38:23;;;;;;;6.07;1.88;;;9.90;99.90;;;;;;5026643;28;20394;-78
2022/03/17 01:40:48;;;;;;;3.08;1.60;;;9.80;99.90;;;;;;5041441;28;20123;-78
2022/03/17 01:43:14;;;;;;;4.57;1.73;;;9.90;99.90;;;;;;5024849;28;20565;-78
2022/03/17 01:45:39;;;;;;;4.18;1.40;;;9.80;99.90;;;;;;5041642;28;20286;-78
2022/03/17 01:48:05;;;;;;;3.70;1.48;;;9.80;99.90;;;;;;5058107;28;20114;-78
2022/03/17 01:50:31;;;;;;;3.60;1.63;;;9.90;99.90;;;;;;5042327;28;20036;-78
2022/03/17 01:52:56;;;;;;;2.17;1.20;;;9.90;99.90;;;;;;5024379;28;20135;-78
2022/03/17 01:55:22;;;;;;;3.30;1.27;;;9.90;99.90;;;;;;5057243;28;20029;-78
2022/03/17 01:57:48;;;;;;;5.00;1.85;;;9.90;99.90;;;;;;5040819;28;20060;-78
2022/03/17 02:00:17;;;;;;;5.88;1.95;;;9.90;99.90;;;;;;5051911;28;20467;-78
2022/03/17 02:02:47;;;;;;;6.15;2.35;;;9.90;99.90;;;;;;5025277;28;20036;-78
2022/03/17 02:05:14;;;;;;;7.78;2.80;;;9.90;99.90;;;;;;5057664;28;20421;-78
2022/03/17 02:07:51;;;;;;;6.32;2.35;;;9.90;99.90;;;;;;5060791;28;20123;-78
2022/03/17 02:10:17;;;;;;;2.53;1.48;;;9.90;99.90;;;;;;5059459;28;20109;-78
2022/03/17 02:15:28;;;;;;;4.90;2.22;;;9.90;99.90;;;;;;5054922;28;20072;-78
2022/03/17 02:17:54;;;;;;;4.22;1.10;;;9.90;99.90;;;;;;5036805;28;20123;-78
2022/03/17 02:20:20;;;;;;;5.13;2.45;;;9.90;99.90;;;;;;5040238;28;20056;-78
2022/03/17 02:22:50;;;;;;;5.85;2.15;;;9.90;99.90;;;;;;5040357;28;20116;-78
2022/03/17 02:25:34;;;;;;;3.88;1.52;;;9.80;99.90;;;;;;5058712;28;20036;-78
2022/03/17 02:28:02;;;;;;;2.65;1.38;;;9.90;99.90;;;;;;5040444;28;20472;-78
2022/03/17 02:30:29;;;;;;;5.38;2.25;;;9.80;99.90;;;;;;5041888;28;20082;-78
2022/03/17 02:33:03;;;;;;;4.13;1.40;;;9.90;99.90;;;;;;5057386;28;20169;-78
2022/03/17 02:35:29;;;;;;;7.25;2.50;;;9.80;99.90;;;;;;5023821;28;20049;-78
2022/03/17 02:37:56;;;;;;;6.68;2.53;;;9.80;99.90;;;;;;5029056;28;20060;-78
2022/03/17 02:40:25;;;;;;;3.42;1.00;;;9.80;99.90;;;;;;5040930;28;20095;-78
2022/03/17 02:42:51;;;;;;;3.97;1.35;;;9.80;99.90;;;;;;5041829;28;20121;-78
2022/03/17 02:45:17;;;;;;;3.75;1.80;;;9.80;99.90;;;;;;5039015;28;20041;-78
2022/03/17 02:47:42;;;;;;;3.65;2.22;;;9.80;99.90;;;;;;5050831;28;20044;-78
2022/03/17 02:50:12;;;;;;;8.57;2.42;;;9.80;99.90;;;;;;5044696;28;20048;-78
2022/03/17 02:52:38;;;;;;;4.72;1.60;;;9.80;99.90;;;;;;5046704;28;20043;-78
2022/03/17 02:55:05;;;;;;;4.65;1.50;;;9.80;99.90;;;;;;5042754;28;20399;-78
2022/03/17 02:57:30;;;;;;;3.45;2.20;;;9.80;99.90;;;;;;5029386;28;20493;-78
2022/03/17 02:59:56;;;;;;;4.03;1.42;;;9.80;99.90;;;;;;5028587;28;20029;-78
2022/03/17 03:02:22;;;;;;;7.20;2.55;;;9.80;99.90;;;;;;5026912;28;20063;-78
2022/03/17 03:04:48;;;;;;;2.70;1.55;;;9.80;99.90;;;;;;5047071;28;20533;-78
2022/03/17 03:07:14;;;;;;;4.50;1.85;;;9.80;99.90;;;;;;5027839;28;20044;-78
2022/03/17 03:09:40;;;;;;;5.72;2.47;;;9.80;99.90;;;;;;5032870;28;20044;-78
2022/03/17 03:12:06;;;;;;;4.60;2.22;;;9.80;99.90;;;;;;5043137;28;20033;-78
2022/03/17 03:14:32;;;;;;;3.70;2.55;;;9.80;99.90;;;;;;5056924;28;20244;-78
2022/03/17 03:16:58;;;;;;;5.47;1.98;;;9.80;99.90;;;;;;5041909;28;20648;-78
2022/03/17 03:19:24;;;;;;;9.48;2.78;;;9.80;99.90;;;;;;5063638;28;20061;-78
2022/03/17 03:21:50;;;;;;;6.68;2.95;;;9.80;99.90;;;;;;5031279;28;20522;-78
2022/03/17 03:24:16;;;;;;;5.00;2.05;;;9.80;99.90;;;;;;5047346;28;20151;-78
2022/03/17 03:26:43;;;;;;;5.07;2.15;;;9.80;99.90;;;;;;5044759;28;20060;-78
2022/03/17 03:31:44;;;;;;;6.03;2.38;;;9.90;99.90;;;;;;5041046;28;20179;-78
2022/03/17 03:34:09;;;;;;;6.10;2.72;;;9.80;99.90;;;;;;5044254;28;20084;-78
2022/03/17 03:39:19;;;;;;;3.40;2.13;;;9.90;99.90;;;;;;5047913;28;20045;-78
2022/03/17 03:41:45;;;;;;;3.58;2.00;;;9.80;99.90;;;;;;5028044;28;20033;-78
2022/03/17 03:44:14;;;;;;;4.38;2.20;;;9.90;99.90;;;;;;5042464;28;20039;-78
2022/03/17 03:46:40;;;;;;;6.05;1.92;;;9.90;99.90;;;;;;5044238;28;20044;-78
2022/03/17 03:49:06;;;;;;;2.38;1.38;;;9.90;99.90;;;;;;5063098;28;20044;-78
2022/03/17 03:51:32;;;;;;;5.00;1.95;;;9.90;99.90;;;;;;5041458;28;20058;-78
2022/03/17 03:54:16;;;;;;;3.33;1.58;;;9.80;99.90;;;;;;5040124;28;20037;-78
2022/03/17 03:56:47;;;;;;;2.70;1.67;;;9.90;99.90;;;;;;5061353;28;20191;-78
2022/03/17 04:01:42;;;;;;;3.83;1.77;;;9.90;99.90;;;;;;5043860;28;20446;-78
2022/03/17 04:04:07;;;;;;;4.00;2.15;;;9.80;99.90;;;;;;5059967;28;20123;-78
2022/03/17 04:06:41;;;;;;;6.28;2.22;;;9.80;99.90;;;;;;5044068;28;20047;-78
2022/03/17 04:09:07;;;;;;;5.93;2.22;;;9.80;99.90;;;;;;5066332;28;20045;-78
2022/03/17 04:11:32;;;;;;;5.10;2.22;;;9.90;99.90;;;;;;5061151;28;20033;-78
2022/03/17 04:13:58;;;;;;;4.15;1.98;;;9.90;99.90;;;;;;5047154;28;20103;-78
2022/03/17 04:16:23;;;;;;;7.45;2.38;;;9.90;99.90;;;;;;5063432;28;20037;-78
2022/03/17 04:18:49;;;;;;;6.00;2.38;;;9.90;99.90;;;;;;5043061;28;20036;-78
2022/03/17 04:21:15;;;;;;;6.80;2.42;;;9.90;99.90;;;;;;5041196;28;20029;-78
2022/03/17 04:23:40;;;;;;;5.13;2.20;;;9.90;99.90;;;;;;5039213;28;20029;-78
2022/03/17 04:26:06;;;;;;;4.45;2.38;;;9.90;99.90;;;;;;5060479;28;20124;-78
2022/03/17 04:28:31;;;;;;;4.57;1.95;;;9.90;99.90;;;;;;5046762;28;20052;-78
2022/03/17 04:30:58;;;;;;;4.70;1.65;;;9.90;99.90;;;;;;5042585;28;20391;-78
2022/03/17 04:33:23;;;;;;;5.22;2.42;;;9.90;99.90;;;;;;5046120;28;20443;-78
2022/03/17 04:35:49;;;;;;;5.78;2.40;;;9.90;99.90;;;;;;5040145;28;20037;-78
2022/03/17 04:38:16;;;;;;;6.05;2.38;;;9.90;99.90;;;;;;5042270;28;20049;-79
2022/03/17 04:40:46;;;;;;;5.28;2.90;;;9.90;99.90;;;;;;5028098;28;20041;-78
2022/03/17 04:43:12;;;;;;;3.80;2.30;;;9.90;99.90;;;;;;5042621;28;20504;-78
2022/03/17 04:45:38;;;;;;;4.45;2.25;;;9.80;99.90;;;;;;5028933;28;20079;-79
2022/03/17 04:48:05;;;;;;;4.82;2.58;;;9.80;99.90;;;;;;5029056;28;20041;-78
2022/03/17 04:50:30;;;;;;;4.25;1.88;;;9.80;99.90;;;;;;5025721;28;20048;-79
2022/03/17 04:55:40;;;;;;;3.95;2.50;;;9.80;99.90;;;;;;5044951;28;20049;-79
2022/03/17 04:58:06;;;;;;;7.70;3.47;;;9.70;99.90;;;;;;5028252;28;20060;-79
2022/03/17 05:00:32;;;;;;;4.18;1.77;;;9.60;99.90;;;;;;5060286;28;20044;-79
2022/03/17 05:02:57;;;;;;;5.72;2.33;;;9.60;99.90;;;;;;5057776;28;20410;-80
2022/03/17 05:05:23;;;;;;;15.43;7.05;;;9.60;99.90;;;;;;5044408;28;20029;-80
2022/03/17 05:07:48;;;;;;;17.08;7.47;;;9.50;99.90;;;;;;5044070;28;20486;-80
2022/03/17 05:10:14;;;;;;;18.00;8.27;;;9.50;99.90;;;;;;5026213;28;20037;-80
2022/03/17 05:12:39;;;;;;;16.58;6.88;;;9.50;99.90;;;;;;5036441;28;20055;-80
2022/03/17 05:15:06;;;;;;;15.38;6.55;;;9.50;99.90;;;;;;5042416;28;20069;-80
2022/03/17 05:17:33;;;;;;;4.18;1.50;;;9.40;99.90;;;;;;5045682;28;20087;-80
2022/03/17 05:19:59;;;;;;;3.80;2.65;;;9.40;99.90;;;;;;5062538;28;20044;-80
2022/03/17 05:22:26;;;;;;;3.45;1.08;;;9.40;99.90;;;;;;5043530;28;20106;-80
2022/03/17 05:24:52;;;;;;;4.72;1.92;;;9.40;99.90;;;;;;5057885;28;20511;-80
2022/03/17 05:27:17;;;;;;;3.28;1.60;;;9.40;99.90;;;;;;5024655;28;20049;-80
2022/03/17 05:29:43;;;;;;;3.50;1.48;;;9.40;99.90;;;;;;5038901;28;20044;-80
2022/03/17 05:32:09;;;;;;;1.58;1.00;;;9.40;99.90;;;;;;5041520;28;20041;-80
2022/03/17 05:34:34;;;;;;;0.25;0.25;;;9.30;99.90;;;;;;5037473;28;20040;-80
2022/03/17 05:37:00;;;;;;;0.57;0.50;;;9.30;99.90;;;;;;5040598;28;20041;-80
2022/03/17 05:39:25;;;;;;;0.30;0.30;;;9.20;99.90;;;;;;5024586;28;20145;-80
2022/03/17 05:41:51;;;;;;;0.63;0.55;;;9.10;99.90;;;;;;5037780;28;20033;-80
2022/03/17 05:44:17;;;;;;;0.17;0.13;;;9.00;99.90;;;;;;5042384;28;20044;-80
2022/03/17 05:46:42;;;;;;;0.57;0.57;;;8.90;99.90;;;;;;5044475;28;20053;-80
2022/03/17 05:49:08;;;;;;;0.40;0.25;;;8.80;99.90;;;;;;5042567;28;20037;-79
2022/03/17 05:51:33;;;;;;;0.38;0.30;;;8.70;99.90;;;;;;5025587;28;20170;-80
2022/03/17 05:53:59;;;;;;;0.82;0.45;;;8.60;99.90;;;;;;5043390;28;20040;-79
2022/03/17 05:56:25;;;;;;;0.57;0.20;;;8.60;99.90;;;;;;5038098;28;20039;-80
2022/03/17 05:58:50;;;;;;;1.33;0.32;;;8.50;99.90;;;;;;5043103;28;20442;-80
2022/03/17 06:01:16;;;;;;;0.22;0.15;;;8.50;99.90;;;;;;5042378;28;20036;-79
2022/03/17 06:03:41;;;;;;;1.45;0.70;;;8.50;99.90;;;;;;5020238;28;20037;-80
2022/03/17 06:06:07;;;;;;;0.60;0.30;;;8.40;99.90;;;;;;5040108;28;20044;-79
2022/03/17 06:08:32;;;;;;;1.55;0.85;;;8.40;99.90;;;;;;5041166;28;20041;-79
2022/03/17 06:10:58;;;;;;;1.65;0.45;;;8.40;99.90;;;;;;5038698;28;20120;-79
2022/03/17 06:13:23;;;;;;;0.50;0.50;;;8.40;99.90;;;;;;5041188;28;20088;-80
2022/03/17 06:15:49;;;;;;;0.80;0.52;;;8.30;99.90;;;;;;5025469;28;20040;-79
2022/03/17 06:18:15;;;;;;;0.50;0.43;;;8.30;99.90;;;;;;5041551;28;20065;-79
2022/03/17 06:20:40;;;;;;;1.65;0.88;;;8.30;99.90;;;;;;5038529;28;20055;-80
2022/03/17 06:23:07;;;;;;;0.22;0.22;;;8.30;99.90;;;;;;5022440;28;20129;-79
2022/03/17 06:25:34;;;;;;;0.40;0.20;;;8.30;99.90;;;;;;5040314;28;21698;-79
2022/03/17 06:28:00;;;;;;;0.63;0.50;;;8.30;99.90;;;;;;5048572;28;20037;-81
2022/03/17 06:30:27;;;;;;;0.28;0.15;;;8.30;99.90;;;;;;5038443;28;20036;-79
2022/03/17 06:32:54;;;;;;;0.38;0.30;;;8.30;99.90;;;;;;5041805;28;20054;-79
2022/03/17 06:35:21;;;;;;;1.00;0.75;;;8.30;99.90;;;;;;5038360;28;20037;-79
2022/03/17 06:37:53;;;;;;;0.63;0.52;;;8.20;99.90;;;;;;5038587;28;20041;-80
2022/03/17 06:40:20;;;;;;;0.35;0.28;;;8.20;99.90;;;;;;5025513;28;20095;-80
2022/03/17 06:42:47;;;;;;;0.32;0.32;;;8.20;99.90;;;;;;5040756;28;20033;-80
2022/03/17 06:45:13;;;;;;;0.30;0.20;;;8.20;99.90;;;;;;5023599;28;20124;-80
2022/03/17 06:47:40;;;;;;;0.22;0.22;;;8.20;99.90;;;;;;5019865;28;20583;-79
2022/03/17 06:50:07;;;;;;;0.10;0.08;;;8.10;99.90;;;;;;5038188;28;20041;-80
2022/03/17 06:52:33;;;;;;;0.45;0.30;;;8.20;99.90;;;;;;5057522;28;20029;-79
2022/03/17 06:54:58;;;;;;;0.13;0.10;;;8.20;99.90;;;;;;5028587;28;20072;-79
2022/03/17 06:57:24;;;;;;;0.17;0.10;;;8.10;99.90;;;;;;5040742;28;20455;-79
2022/03/17 06:59:51;;;;;;;0.55;0.55;;;8.20;99.90;;;;;;5058072;28;20036;-79
2022/03/17 07:02:17;;;;;;;0.32;0.05;;;8.10;99.90;;;;;;5022275;28;20048;-80
2022/03/17 07:04:43;;;;;;;0.45;0.10;;;8.10;99.90;;;;;;5038563;28;20131;-84
2022/03/17 07:07:09;;;;;;;0.20;0.15;;;8.10;99.90;;;;;;5021589;28;20045;-80
2022/03/17 07:09:35;;;;;;;0.17;0.17;;;8.10;99.90;;;;;;5039375;28;20517;-79
2022/03/17 07:12:02;;;;;;;0.05;0.05;;;8.10;99.90;;;;;;5025033;28;20571;-81
2022/03/17 07:14:27;;;;;;;0.10;0.10;;;8.00;99.90;;;;;;5028058;28;20127;-80
2022/03/17 07:16:53;;;;;;;0.30;0.30;;;8.10;99.90;;;;;;5032272;28;20120;-80
2022/03/17 07:19:18;;;;;;;0.63;0.38;;;8.10;99.90;;;;;;5021573;28;20180;-80
2022/03/17 07:21:44;;;;;;;0.00;0.00;;;8.10;99.90;;;;;;5033870;28;20102;-79
2022/03/17 07:24:10;;;;;;;0.32;0.10;;;8.10;99.90;;;;;;5022390;28;20426;-79
2022/03/17 07:26:36;;;;;;;0.03;0.03;;;8.10;99.90;;;;;;5021782;28;20045;-80
2022/03/17 07:29:03;;;;;;;0.08;0.03;;;8.00;99.90;;;;;;5039985;28;21515;-80
2022/03/17 07:31:29;;;;;;;0.90;0.13;;;8.10;99.90;;;;;;5039111;28;20477;-79
2022/03/17 07:33:55;;;;;;;0.05;0.05;;;8.00;99.90;;;;;;5025876;28;20119;-79
2022/03/17 07:36:21;;;;;;;0.00;0.00;;;8.10;99.90;;;;;;5059582;28;20572;-80
2022/03/17 07:38:48;;;;;;;0.08;0.08;;;8.10;99.90;;;;;;5018436;28;20052;-80
2022/03/17 07:41:14;;;;;;;0.00;0.00;;;8.10;99.90;;;;;;5056804;28;20040;-80
2022/03/17 07:43:41;;;;;;;0.00;0.00;;;8.00;99.90;;;;;;5058683;28;20547;-80
2022/03/17 07:46:07;;;;;;;0.08;0.08;;;8.00;99.90;;;;;;5026125;28;20116;-80
2022/03/17 07:48:33;;;;;;;0.00;0.00;;;8.00;99.90;;;;;;5024901;28;20325;-80
2022/03/17 07:50:59;;;;;;;0.00;0.00;;;8.00;99.90;;;;;;5043343;28;20098;-79
2022/03/17 07:53:24;;;;;;;0.00;0.00;;;8.10;99.90;;;;;;5027673;28;20036;-80
2022/03/17 07:55:54;;;;;;;0.47;0.40;;;8.10;99.90;;;;;;5056959;28;20033;-79
2022/03/17 07:58:21;;;;;;;0.10;0.00;;;8.10;99.90;;;;;;5021537;28;20037;-80
2022/03/17 08:00:47;;;;;;;0.13;0.13;;;8.10;99.90;;;;;;5038328;28;20372;-80
2022/03/17 08:03:12;;;;;;;0.00;0.00;;;8.10;99.90;;;;;;5040666;28;20053;-79
2022/03/17 08:05:38;;;;;;;0.10;0.05;;;8.10;99.90;;;;;;5028643;28;20036;-79
2022/03/17 08:08:04;;;;;;;0.05;0.05;;;8.10;99.90;;;;;;5060264;28;20518;-80
2022/03/17 08:10:29;;;;;;;0.13;0.13;;;8.10;99.90;;;;;;5028554;28;20044;-79
2022/03/17 08:12:55;;;;;;;0.00;0.00;;;8.10;99.90;;;;;;5044120;28;20067;-79
2022/03/17 08:15:22;;;;;;;0.00;0.00;;;8.10;99.90;;;;;;5059921;28;20494;-79
2022/03/17 08:17:48;;;;;;;0.00;0.00;;;8.10;99.90;;;;;;5042834;28;20063;-79
2022/03/17 08:20:14;;;;;;;0.08;0.00;;;8.10;99.90;;;;;;5040986;28;20037;-81
2022/03/17 08:22:42;;;;;;;0.00;0.00;;;8.00;99.90;;;;;;5043051;28;20033;-81
2022/03/17 08:25:08;;;;;;;0.10;0.10;;;8.00;99.90;;;;;;5028470;28;20048;-81
2022/03/17 08:27:37;;;;;;;0.00;0.00;;;8.00;99.90;;;;;;5028269;28;20874;-81
2022/03/17 08:30:03;;;;;;;0.28;0.28;;;8.00;99.90;;;;;;5043805;28;20059;-81
2022/03/17 08:32:29;;;;;;;0.00;0.00;;;8.00;99.90;;;;;;5058649;28;20049;-80
2022/03/17 08:34:55;;;;;;;0.00;0.00;;;8.00;99.90;;;;;;5040116;28;20415;-80
2022/03/17 08:37:20;;;;;;;0.00;0.00;;;7.90;99.90;;;;;;5038621;28;20033;-80
2022/03/17 08:39:48;;;;;;;0.00;0.00;;;8.00;99.90;;;;;;5026167;28;20063;-80
2022/03/17 08:42:14;;;;;;;0.00;0.00;;;7.90;99.90;;;;;;5023967;28;20037;-81
2022/03/17 08:44:39;;;;;;;0.00;0.00;;;8.00;99.90;;;;;;5042956;28;20049;-80
2022/03/17 08:49:49;;;;;;;0.00;0.00;;;7.90;99.90;;;;;;5038993;28;20041;-80
2022/03/17 08:52:14;;;;;;;0.05;0.00;;;8.00;99.90;;;;;;5055082;28;20045;-80
2022/03/17 08:54:42;;;;;;;0.00;0.00;;;7.90;99.90;;;;;;5021559;28;20095;-80
2022/03/17 08:57:08;;;;;;;0.00;0.00;;;7.90;99.90;;;;;;5030403;28;20045;-80
2022/03/17 08:59:36;;;;;;;0.00;0.00;;;8.00;99.90;;;;;;5008172;28;20037;-86
2022/03/17 09:02:05;;;;;;;0.00;0.00;;;8.00;99.90;;;;;;5024464;28;20483;-76
2022/03/17 09:04:31;;;;;;;0.17;0.10;;;7.90;99.90;;;;;;5035302;28;20064;-76
2022/03/17 09:06:59;;;;;;;0.10;0.10;;;8.00;99.90;;;;;;5038463;28;20052;-79
2022/03/17 09:09:34;;;;;;;0.00;0.00;;;7.90;99.90;;;;;;5042156;28;20118;-82
2022/03/17 09:12:04;;;;;;;0.00;0.00;;;7.90;99.90;;;;;;5034642;28;20072;-79
2022/03/17 09:14:31;;;;;;;0.00;0.00;;;7.90;99.90;;;;;;5030511;28;20037;-79
2022/03/17 09:16:56;;;;;;;0.00;0.00;;;7.90;99.90;;;;;;5037967;28;20048;-80
2022/03/17 09:19:22;;;;;;;0.00;0.00;;;7.90;99.90;;;;;;5039832;28;20037;-79
2022/03/17 09:21:48;;;;;;;0.00;0.00;;;7.90;99.90;;;;;;5038461;28;20697;-80
2022/03/17 09:24:14;;;;;;;0.03;0.00;;;8.00;99.90;;;;;;5019433;28;20072;-79
2022/03/17 09:26:39;;;;;;;0.20;0.08;;;8.10;99.90;;;;;;5015644;28;20037;-79
2022/03/17 09:29:05;;;;;;;0.10;0.00;;;8.10;99.90;;;;;;5054805;28;20163;-79
2022/03/17 09:31:31;;;;;;;0.00;0.00;;;8.10;99.90;;;;;;5036675;28;20041;-80
2022/03/17 09:33:58;;;;;;;0.00;0.00;;;8.20;99.90;;;;;;5037270;28;20548;-79
2022/03/17 09:36:24;;;;;;;9.63;0.45;;;8.20;99.90;;;;;;5039051;28;20029;-79
2022/03/17 09:39:45;;;;;;;0.00;0.00;;;8.20;99.90;;;;;;5053615;28;20040;-78
2022/03/17 09:41:36;;;;;;;0.00;0.00;;;8.10;99.90;;;;;;5056194;28;20041;-79
2022/03/17 09:44:04;;;;;;;0.03;0.03;;;8.10;99.90;;;;;;5035497;28;20544;-79
2022/03/17 09:46:31;;;;;;;0.00;0.00;;;8.10;99.90;;;;;;5040158;28;20047;-79
2022/03/17 09:48:58;;;;;;;0.55;0.10;;;8.20;99.90;;;;;;5021693;28;20526;-79
2022/03/17 09:51:26;;;;;;;0.10;0.10;;;8.20;99.90;;;;;;5025226;28;20124;-79
2022/03/17 09:53:53;;;;;;;0.00;0.00;;;8.20;99.90;;;;;;5021507;28;20388;-79
2022/03/17 09:56:23;;;;;;;0.00;0.00;;;8.20;99.90;;;;;;5020570;28;20083;-79
2022/03/17 09:58:55;;;;;;;0.00;0.00;;;8.20;99.90;;;;;;5037638;28;20059;-79
2022/03/17 10:01:22;;;;;;;0.00;0.00;;;8.20;99.90;;;;;;5054732;28;20117;-79
2022/03/17 10:03:48;;;;;;;0.00;0.00;;;8.20;99.90;;;;;;5039253;28;20545;-80
2022/03/17 10:06:17;;;;;;;0.00;0.00;;;8.20;99.90;;;;;;5039227;28;20124;-79
2022/03/17 10:08:45;;;;;;;0.52;0.20;;;8.30;99.90;;;;;;5040101;28;20051;-79
2022/03/17 10:11:16;;;;;;;0.00;0.00;;;8.30;99.90;;;;;;5059861;28;20502;-79
2022/03/17 10:13:46;;;;;;;0.00;0.00;;;8.30;99.90;;;;;;5041758;28;20057;-80
2022/03/17 10:16:22;;;;;;;0.10;0.10;;;8.40;99.90;;;;;;5022157;28;20435;-79
2022/03/17 10:18:57;;;;;;;0.00;0.00;;;8.50;99.90;;;;;;5052767;28;20043;-79
2022/03/17 10:21:25;;;;;;;0.00;0.00;;;8.60;99.90;;;;;;5014943;28;20081;-80
2022/03/17 10:23:59;;;;;;;0.00;0.00;;;8.60;99.90;;;;;;5034909;28;20127;-79
2022/03/17 10:26:32;;;;;;;0.00;0.00;;;8.70;99.90;;;;;;5051554;28;20041;-80
2022/03/17 10:29:06;;;;;;;0.00;0.00;;;8.80;99.90;;;;;;5032594;28;20043;-80
2022/03/17 10:31:51;;;;;;;0.00;0.00;;;8.90;99.90;;;;;;5035480;28;20536;-79
2022/03/17 10:34:18;;;;;;;0.85;0.10;;;8.90;99.90;;;;;;5050263;28;20049;-79
2022/03/17 10:36:48;;;;;;;0.00;0.00;;;8.90;99.90;;;;;;5038473;28;20556;-81
2022/03/17 10:39:14;;;;;;;0.10;0.10;;;8.90;99.90;;;;;;5036616;28;20036;-80
2022/03/17 10:41:48;;;;;;;0.05;0.05;;;8.90;99.90;;;;;;5020897;28;20071;-80
2022/03/17 10:44:16;;;;;;;0.00;0.00;;;9.00;99.90;;;;;;5039528;28;20111;-80
2022/03/17 10:46:56;;;;;;;0.00;0.00;;;9.00;99.90;;;;;;5020696;28;20032;-80
2022/03/17 10:49:22;;;;;;;0.00;0.00;;;9.10;99.90;;;;;;5036769;28;20111;-80
2022/03/17 10:51:54;;;;;;;0.00;0.00;;;9.20;99.90;;;;;;5039475;28;20265;-80
2022/03/17 10:54:20;;;;;;;0.00;0.00;;;9.20;99.90;;;;;;5022706;28;20048;-80
2022/03/17 10:57:03;;;;;;;0.00;0.00;;;9.30;99.90;;;;;;5023913;28;20029;-80
2022/03/17 10:59:43;;;;;;;0.00;0.00;;;9.30;99.90;;;;;;5052803;28;20040;-79
2022/03/17 11:02:24;;;;;;;0.00;0.00;;;9.40;99.90;;;;;;5035605;28;20040;-79
2022/03/17 11:04:51;;;;;;;0.05;0.05;;;9.30;99.90;;;;;;5036316;28;20611;-80
2022/03/17 11:07:18;;;;;;;0.00;0.00;;;9.40;99.90;;;;;;5019642;28;20186;-79
2022/03/17 11:09:47;;;;;;;0.00;0.00;;;9.40;99.90;;;;;;5059992;28;20044;-79
2022/03/17 11:12:17;;;;;;;2.65;0.30;;;9.60;99.90;;;;;;5044990;28;20037;-79
2022/03/17 11:14:44;;;;;;;0.00;0.00;;;9.60;99.90;;;;;;5057099;28;20053;-78
2022/03/17 11:17:14;;;;;;;0.00;0.00;;;9.70;97.70;;;;;;5026298;28;20047;-78
2022/03/17 11:19:44;;;;;;;0.47;0.28;;;9.80;97.60;;;;;;5039516;28;20123;-79
2022/03/17 11:22:15;;;;;;;0.00;0.00;;;9.90;98.00;;;;;;5040042;28;20422;-78
2022/03/17 11:24:41;;;;;;;0.15;0.15;;;9.80;96.20;;;;;;5038739;28;20037;-79
2022/03/17 11:27:15;;;;;;;0.00;0.00;;;9.80;98.60;;;;;;5038899;28;20076;-79
2022/03/17 11:29:46;;;;;;;0.00;0.00;;;9.80;99.80;;;;;;5037479;28;20098;-78
2022/03/17 11:32:28;;;;;;;0.00;0.00;;;9.80;99.90;;;;;;5044309;28;20094;-79
2022/03/17 11:35:10;;;;;;;0.00;0.00;;;9.70;96.90;;;;;;5040113;28;20528;-78
2022/03/17 11:37:36;;;;;;;0.10;0.10;;;9.60;95.10;;;;;;5040276;28;20048;-77
2022/03/17 11:40:14;;;;;;;0.10;0.10;;;9.60;96.50;;;;;;5039320;28;20033;-78
2022/03/17 11:42:52;;;;;;;0.00;0.00;;;9.60;99.50;;;;;;5035856;28;20063;-78
2022/03/17 11:45:18;;;;;;;0.10;0.10;;;9.60;95.00;;;;;;5040014;28;20037;-78
2022/03/17 11:47:49;;;;;;;0.00;0.00;;;9.70;93.10;;;;;;5042312;28;20037;-78
2022/03/17 11:50:25;;;;;;;0.00;0.00;;;9.70;95.70;;;;;;5042635;28;20044;-78
2022/03/17 11:53:02;;;;;;;0.00;0.00;;;9.60;94.20;;;;;;5059719;28;20044;-78
2022/03/17 11:55:36;;;;;;;0.00;0.00;;;9.60;95.90;;;;;;5042378;28;20126;-79
2022/03/17 11:58:23;;;;;;;0.03;0.03;;;9.60;95.90;;;;;;5026666;28;20371;-78
2022/03/17 12:00:53;;;;;;;0.00;0.00;;;9.60;96.30;;;;;;5041420;28;20036;-77
2022/03/17 12:03:39;;;;;;;0.00;0.00;;;9.70;98.10;;;;;;5027123;28;20479;-77
2022/03/17 12:06:17;;;;;;;0.00;0.00;;;9.70;98.80;;;;;;5056341;28;20451;-78
2022/03/17 12:09:01;;;;;;;0.00;0.00;;;9.70;90.60;;;;;;5058082;28;20048;-78
2022/03/17 12:11:29;;;;;;;0.20;0.20;;;9.70;93.60;;;;;;5043287;28;20489;-77
2022/03/17 12:14:16;;;;;;;0.00;0.00;;;9.70;95.70;;;;;;5038504;28;20418;-77
2022/03/17 12:17:03;;;;;;;0.00;0.00;;;9.60;89.90;;;;;;5049288;28;20478;-78
2022/03/17 12:19:35;;;;;;;0.20;0.20;;;9.60;93.10;;;;;;5040515;28;20043;-77
2022/03/17 12:22:00;;;;;;;0.30;0.00;;;9.60;96.10;;;;;;5049709;28;20072;-77
2022/03/17 12:24:45;;;;;;;0.10;0.10;;;9.70;99.20;;;;;;5044688;28;20041;-77
2022/03/17 12:27:32;;;;;;;0.00;0.00;;;9.70;96.00;;;;;;5024434;28;20036;-77
2022/03/17 12:30:15;;;;;;;0.10;0.10;;;9.70;92.50;;;;;;5043027;28;20040;-77
2022/03/17 12:32:49;;;;;;;0.00;0.00;;;9.70;94.10;;;;;;5058951;28;20090;-77
2022/03/17 12:35:15;;;;;;;0.10;0.10;;;9.80;95.90;;;;;;5015152;28;20041;-77
2022/03/17 12:37:42;;;;;;;0.03;0.00;;;9.80;94.40;;;;;;5028489;28;20041;-77
2022/03/17 12:40:18;;;;;;;0.00;0.00;;;9.80;95.50;;;;;;5049139;28;20069;-78
2022/03/17 12:42:49;;;;;;;0.20;0.10;;;9.80;94.30;;;;;;5031049;28;20033;-78
2022/03/17 12:45:16;;;;;;;0.00;0.00;;;9.80;94.90;;;;;;5030827;28;20033;-77
2022/03/17 12:47:50;;;;;;;0.10;0.10;;;9.90;98.10;;;;;;5050497;28;20065;-77
2022/03/17 12:50:20;;;;;;;0.10;0.10;;;9.90;94.20;;;;;;5033548;28;20049;-78
2022/03/17 12:52:47;;;;;;;0.13;0.13;;;10.00;95.50;;;;;;5034591;28;20067;-79
2022/03/17 12:55:15;;;;;;;0.10;0.08;;;10.00;98.30;;;;;;5017411;28;20046;-78
2022/03/17 12:57:41;;;;;;;0.00;0.00;;;10.00;99.00;;;;;;5041119;28;20350;-77
2022/03/17 13:00:10;;;;;;;0.80;0.22;;;10.10;96.90;;;;;;5032038;28;20033;-77
2022/03/17 13:02:36;;;;;;;0.00;0.00;;;10.10;93.50;;;;;;5019886;28;20041;-77
2022/03/17 13:06:53;;;;;;;0.32;0.10;;;10.10;94.10;;;;;;5047909;28;20375;-77
2022/03/17 13:07:49;;;;;;;0.15;0.10;;;10.10;96.80;;;;;;5035387;28;20080;-77
2022/03/17 13:10:16;;;;;;;0.10;0.10;;;10.10;95.40;;;;;;5024815;28;20497;-77
2022/03/17 13:15:28;;;;;;;0.10;0.05;;;10.00;93.50;;;;;;5052373;28;20110;-77
2022/03/17 13:18:04;;;;;;;0.17;0.15;;;9.90;94.10;;;;;;5022478;28;20476;-76
2022/03/17 13:20:30;;;;;;;0.00;0.00;;;9.90;93.30;;;;;;5049714;28;20079;-77